Takotna, Alaska
Current Conditions -  °F | °C
As of 9:55 PM on Saturday 25 Oct 2014 (Local Time) from PATL Reporting Station
Moderate Fog Moderate Fog  
Wind Chill: 20°   Ceiling: 200
Heat Index: 20°   Visibility: 0.5mi
Dew Point: 20°   Wind: 1mph
Humidity: 98%   Direction: 80°E
Pressure: 29.8"   Gusts: NA
Location:  62.99°N, 156.09°W
Report Text: PATL 260555Z AUTO 08001KT 1/2SM FZFG BKN002 BKN055 M06/M07 A2980 RMK AO2 SLP116 T10651068 11058 21067 57005 $
Loading
Personal Weather Stations






























Interactive Weather Map
Tropical Storm Tracking
New forecast layout! Learn more

10-Day Weather Forecast

Advertisements
Track Severe Weather on mobile